createdAt,value
2022-08-22T00:01:48.628Z,16.67
2022-08-22T00:02:45.527Z,21.75
2022-08-22T00:02:49.029Z,19.70
2022-08-22T00:04:24.802Z,16.59
2022-08-22T00:07:13.671Z,16.48
2022-08-22T00:09:40.667Z,16.46
2022-08-22T00:12:22.406Z,16.47
2022-08-22T00:14:58.394Z,16.27
2022-08-22T00:17:25.549Z,16.45
2022-08-22T00:20:18.571Z,16.48
2022-08-22T00:23:02.950Z,16.44
2022-08-22T00:25:29.926Z,16.43
2022-08-22T00:28:06.040Z,16.45
2022-08-22T00:30:43.197Z,16.49
2022-08-22T00:33:24.020Z,16.45
2022-08-22T00:36:01.660Z,16.35
2022-08-22T00:38:38.417Z,16.21
2022-08-22T00:41:38.778Z,16.16
2022-08-22T00:44:31.274Z,16.05
2022-08-22T00:47:04.145Z,16.26
2022-08-22T00:49:50.873Z,15.92
2022-08-22T00:52:36.902Z,16.07
2022-08-22T00:55:12.443Z,15.86
2022-08-22T00:57:51.442Z,15.83
2022-08-22T01:00:20.628Z,15.73
2022-08-22T01:03:25.037Z,15.68
2022-08-22T01:06:16.999Z,15.67
2022-08-22T01:08:56.552Z,15.78
2022-08-22T01:11:26.348Z,15.79
2022-08-22T01:14:36.909Z,15.65
2022-08-22T01:17:17.145Z,15.48
2022-08-22T01:19:56.656Z,15.46
2022-08-22T01:22:54.992Z,15.45
2022-08-22T01:25:49.742Z,15.38
2022-08-22T01:28:35.833Z,15.36
2022-08-22T01:31:40.506Z,15.32
2022-08-22T01:34:12.910Z,15.26
2022-08-22T01:36:40.391Z,15.23
2022-08-22T01:39:22.516Z,15.25
2022-08-22T01:42:07.830Z,15.12
2022-08-22T01:45:10.675Z,14.95
2022-08-22T01:47:54.938Z,15.10
2022-08-22T01:50:34.032Z,15.11
2022-08-22T01:53:25.128Z,15.09
2022-08-22T01:56:06.438Z,15.07
2022-08-22T01:58:36.714Z,15.07
2022-08-22T02:01:22.234Z,15.08
2022-08-22T02:03:55.474Z,14.97
2022-08-22T02:06:34.998Z,15.09
2022-08-22T02:09:11.944Z,15.10
2022-08-22T02:12:05.448Z,15.14
2022-08-22T02:15:16.123Z,15.15
2022-08-22T02:18:04.839Z,15.27
2022-08-22T02:20:57.544Z,15.18
2022-08-22T02:23:43.298Z,15.00
2022-08-22T02:26:17.195Z,14.96
2022-08-22T02:29:07.664Z,14.76
2022-08-22T02:31:42.676Z,14.70
2022-08-22T02:34:29.194Z,14.72
2022-08-22T02:37:12.926Z,14.74
2022-08-22T02:39:53.525Z,14.66
2022-08-22T02:42:33.058Z,14.63
2022-08-22T02:45:06.809Z,14.66
2022-08-22T02:47:51.267Z,14.48
2022-08-22T02:50:31.699Z,14.46
2022-08-22T02:53:09.203Z,14.48
2022-08-22T02:56:00.845Z,14.46
2022-08-22T02:58:59.102Z,14.43
2022-08-22T03:01:29.948Z,14.34
2022-08-22T03:04:30.822Z,14.29
2022-08-22T03:07:16.083Z,14.25
2022-08-22T03:10:18.539Z,14.30
2022-08-22T03:13:06.607Z,14.24
2022-08-22T03:15:49.303Z,14.06
2022-08-22T03:18:25.121Z,14.09
2022-08-22T03:21:14.074Z,14.04
2022-08-22T03:23:47.919Z,13.84
2022-08-22T03:26:22.515Z,13.92
2022-08-22T03:29:00.367Z,13.87
2022-08-22T03:31:29.898Z,13.41
2022-08-22T03:34:23.023Z,13.78
2022-08-22T03:37:01.739Z,13.80
2022-08-22T03:40:00.308Z,13.87
2022-08-22T03:42:42.601Z,13.80
2022-08-22T03:45:34.818Z,13.58
2022-08-22T03:48:13.926Z,13.76
2022-08-22T03:50:47.081Z,13.69
2022-08-22T03:53:45.267Z,13.16
2022-08-22T03:56:38.170Z,13.67
2022-08-22T03:59:19.823Z,13.65
2022-08-22T04:01:59.034Z,13.61
2022-08-22T04:04:56.878Z,13.60
2022-08-22T04:07:42.837Z,13.51
2022-08-22T04:10:35.181Z,13.40
2022-08-22T04:13:02.700Z,13.41
2022-08-22T04:16:14.096Z,13.35
2022-08-22T04:19:10.645Z,13.20
2022-08-22T04:22:15.920Z,13.27
2022-08-22T04:24:53.202Z,13.21
2022-08-22T04:27:37.746Z,13.30
2022-08-22T04:30:22.832Z,13.22
2022-08-22T04:33:01.416Z,13.03
2022-08-22T04:35:44.363Z,13.20
2022-08-22T04:38:27.608Z,13.17
2022-08-22T04:41:04.525Z,13.20
2022-08-22T04:43:46.757Z,13.19
2022-08-22T04:46:23.615Z,13.11
2022-08-22T04:48:59.005Z,13.15
2022-08-22T04:51:40.383Z,13.26
2022-08-22T04:54:30.721Z,13.33
2022-08-22T04:57:23.132Z,13.33
2022-08-22T04:59:51.148Z,13.44
2022-08-22T05:02:24.667Z,13.39
2022-08-22T05:05:04.025Z,13.03
2022-08-22T05:07:41.731Z,13.40
2022-08-22T05:10:16.816Z,13.47
2022-08-22T05:13:06.318Z,13.61
2022-08-22T05:15:37.961Z,13.68
2022-08-22T05:18:09.501Z,13.71
2022-08-22T05:20:40.059Z,13.48
2022-08-22T05:23:17.170Z,13.79
2022-08-22T05:25:48.419Z,13.89
2022-08-22T05:28:22.311Z,13.90
2022-08-22T05:30:50.505Z,13.96
2022-08-22T05:33:55.930Z,14.07
2022-08-22T05:36:30.463Z,14.20
2022-08-22T05:39:07.187Z,14.22
2022-08-22T05:41:37.786Z,14.30
2022-08-22T05:44:16.095Z,14.25
2022-08-22T05:46:46.799Z,14.37
2022-08-22T05:49:36.466Z,14.48
2022-08-22T05:52:24.929Z,14.53
2022-08-22T05:55:02.703Z,14.73
2022-08-22T05:57:38.140Z,14.90
2022-08-22T06:00:11.189Z,14.85
2022-08-22T06:03:04.364Z,15.18
2022-08-22T06:05:37.990Z,14.70
2022-08-22T06:08:14.275Z,15.21
2022-08-22T06:10:52.929Z,15.40
2022-08-22T06:13:41.397Z,15.37
2022-08-22T06:16:23.424Z,15.51
2022-08-22T06:18:52.608Z,15.29
2022-08-22T06:21:34.934Z,15.71
2022-08-22T06:24:09.477Z,15.72
2022-08-22T06:26:40.187Z,15.78
2022-08-22T06:29:09.295Z,15.94
2022-08-22T06:31:45.006Z,16.11
2022-08-22T06:34:15.834Z,16.21
2022-08-22T06:36:49.609Z,16.45
2022-08-22T06:39:41.087Z,16.61
2022-08-22T06:42:22.696Z,16.76
2022-08-22T06:44:57.739Z,16.82
2022-08-22T06:47:49.908Z,17.00
2022-08-22T06:50:27.420Z,17.25
2022-08-22T06:53:05.802Z,17.26
2022-08-22T06:55:35.069Z,17.34
2022-08-22T06:58:06.539Z,17.34
2022-08-22T07:00:35.332Z,17.54
2022-08-22T07:03:18.062Z,17.57
2022-08-22T07:05:45.233Z,17.77
2022-08-22T07:08:20.208Z,17.77
2022-08-22T07:11:11.666Z,18.01
2022-08-22T07:13:45.512Z,18.19
2022-08-22T07:16:12.903Z,18.48
2022-08-22T07:18:50.149Z,18.71
2022-08-22T07:21:29.366Z,18.85
2022-08-22T07:24:01.176Z,18.99
2022-08-22T07:27:06.095Z,19.00
2022-08-22T07:29:58.725Z,19.09
2022-08-22T07:32:46.524Z,19.42
2022-08-22T07:35:15.928Z,19.72
2022-08-22T07:38:09.279Z,20.07
2022-08-22T07:41:00.110Z,20.33
2022-08-22T07:43:34.310Z,20.60
2022-08-22T07:46:23.406Z,20.76
2022-08-22T07:49:08.521Z,20.90
2022-08-22T07:51:44.126Z,21.10
2022-08-22T07:54:14.668Z,21.33
2022-08-22T07:56:46.395Z,21.40
2022-08-22T07:59:18.122Z,21.63
2022-08-22T08:01:54.638Z,21.96
2022-08-22T08:04:26.144Z,22.14
2022-08-22T08:06:57.683Z,22.35
2022-08-22T08:09:32.867Z,22.63
2022-08-22T08:12:03.710Z,22.51
2022-08-22T08:14:32.583Z,22.88
2022-08-22T08:17:13.403Z,22.94
2022-08-22T08:19:42.919Z,22.97
2022-08-22T08:22:17.287Z,22.82
2022-08-22T08:24:49.650Z,22.99
2022-08-22T08:27:40.418Z,23.06
2022-08-22T08:30:15.916Z,22.96
2022-08-22T08:32:48.646Z,23.08
2022-08-22T08:35:23.639Z,23.16
2022-08-22T08:37:55.732Z,23.19
2022-08-22T08:40:32.350Z,23.35
2022-08-22T08:43:34.771Z,23.69
2022-08-22T08:46:20.071Z,23.68
2022-08-22T08:49:17.491Z,23.65
2022-08-22T08:51:59.987Z,23.82
2022-08-22T08:54:57.368Z,23.44
2022-08-22T08:57:52.493Z,23.59
2022-08-22T09:00:50.162Z,23.65
2022-08-22T09:03:29.816Z,23.70
2022-08-22T09:06:07.998Z,23.79
2022-08-22T09:09:12.751Z,23.51
2022-08-22T09:11:55.006Z,24.33
2022-08-22T09:14:48.318Z,24.64
2022-08-22T09:17:44.649Z,24.91
2022-08-22T09:20:25.047Z,24.86
2022-08-22T09:22:58.270Z,24.67
2022-08-22T09:25:39.175Z,24.68
2022-08-22T09:28:23.927Z,24.68
2022-08-22T09:31:17.151Z,24.95
2022-08-22T09:34:08.619Z,25.06
2022-08-22T09:37:04.430Z,25.24
2022-08-22T09:39:39.908Z,25.40
2022-08-22T09:42:38.202Z,25.52
2022-08-22T09:45:42.910Z,25.47
2022-08-22T09:48:28.766Z,25.81
2022-08-22T09:51:31.843Z,26.25
2022-08-22T09:54:22.932Z,26.25
2022-08-22T09:57:27.719Z,25.74
2022-08-22T10:00:09.587Z,25.77
2022-08-22T10:02:57.930Z,26.33
2022-08-22T10:05:43.791Z,26.46
2022-08-22T10:08:35.705Z,26.33
2022-08-22T10:11:17.339Z,26.57
2022-08-22T10:13:52.881Z,26.43
2022-08-22T10:16:54.769Z,26.36
2022-08-22T10:19:44.404Z,26.63
2022-08-22T10:22:39.195Z,26.57
2022-08-22T10:25:33.350Z,26.70
2022-08-22T10:28:17.111Z,26.63
2022-08-22T10:30:48.357Z,26.86
2022-08-22T10:33:35.194Z,27.02
2022-08-22T10:36:11.985Z,26.51
2022-08-22T10:38:53.233Z,26.62
2022-08-22T10:41:36.685Z,27.15
2022-08-22T10:44:16.511Z,27.09
2022-08-22T10:46:53.693Z,26.77
2022-08-22T10:49:51.287Z,26.66
2022-08-22T10:52:24.615Z,26.42
2022-08-22T10:55:05.757Z,26.21
2022-08-22T10:57:37.163Z,26.34
2022-08-22T11:00:17.710Z,26.49
2022-08-22T11:03:23.418Z,26.38
2022-08-22T11:05:57.892Z,26.38
2022-08-22T11:08:28.632Z,26.42
2022-08-22T11:10:58.975Z,26.53
2022-08-22T11:13:37.212Z,26.38
2022-08-22T11:16:41.940Z,26.06
2022-08-22T11:19:20.185Z,26.58
2022-08-22T11:22:19.355Z,26.71
2022-08-22T11:25:11.712Z,26.78
2022-08-22T11:27:57.207Z,26.64
2022-08-22T11:30:44.280Z,26.25
2022-08-22T11:33:18.677Z,26.66
2022-08-22T11:36:00.611Z,27.01
2022-08-22T11:38:56.663Z,26.68
2022-08-22T11:41:29.576Z,26.75
2022-08-22T11:44:08.706Z,26.76
2022-08-22T11:46:39.410Z,26.96
2022-08-22T11:49:28.431Z,26.96
2022-08-22T11:52:11.122Z,26.79
2022-08-22T11:55:16.843Z,26.98
2022-08-22T11:57:51.907Z,26.74
2022-08-22T12:00:31.968Z,26.97
2022-08-22T12:03:23.251Z,27.06
2022-08-22T12:06:08.470Z,27.01
2022-08-22T12:08:35.551Z,27.15
2022-08-22T12:11:11.315Z,27.07
2022-08-22T12:13:52.172Z,27.18
2022-08-22T12:16:49.402Z,27.20
2022-08-22T12:19:32.601Z,27.29
2022-08-22T12:22:24.690Z,27.40
2022-08-22T12:25:23.642Z,27.65
2022-08-22T12:28:05.868Z,27.86
2022-08-22T12:30:38.518Z,28.30
2022-08-22T12:33:23.489Z,28.19
2022-08-22T12:36:05.965Z,28.52
2022-08-22T12:39:03.174Z,28.55
2022-08-22T12:41:35.196Z,28.78
2022-08-22T12:44:18.950Z,28.66
2022-08-22T12:47:01.084Z,28.29
2022-08-22T12:49:49.981Z,28.28
2022-08-22T12:52:35.045Z,28.13
2022-08-22T12:55:12.923Z,28.34
2022-08-22T12:57:53.938Z,28.65
2022-08-22T13:00:38.131Z,28.67
2022-08-22T13:03:12.730Z,28.74
2022-08-22T13:05:44.654Z,28.58
2022-08-22T13:08:35.428Z,28.54
2022-08-22T13:11:08.404Z,28.57
2022-08-22T13:13:56.554Z,28.75
2022-08-22T13:16:34.669Z,28.68
2022-08-22T13:19:09.025Z,28.48
2022-08-22T13:21:51.688Z,28.17
2022-08-22T13:24:39.238Z,28.37
2022-08-22T13:27:15.583Z,28.48
2022-08-22T13:29:56.969Z,28.76
2022-08-22T13:32:32.530Z,28.52
2022-08-22T13:35:01.294Z,28.92
2022-08-22T13:37:38.646Z,28.70
2022-08-22T13:40:10.364Z,28.72
2022-08-22T13:42:50.610Z,28.38
2022-08-22T13:45:28.755Z,28.32
2022-08-22T13:48:03.952Z,28.26
2022-08-22T13:50:56.343Z,28.34
2022-08-22T13:53:49.353Z,28.21
2022-08-22T13:56:30.019Z,28.23
2022-08-22T13:59:01.418Z,28.05
2022-08-22T14:01:46.100Z,28.09
2022-08-22T14:04:36.683Z,28.10
2022-08-22T14:07:03.754Z,28.10
2022-08-22T14:10:00.144Z,28.15
2022-08-22T14:12:50.789Z,28.19
2022-08-22T14:15:33.076Z,28.58
2022-08-22T14:18:15.978Z,28.85
2022-08-22T14:20:47.555Z,28.89
2022-08-22T14:23:27.020Z,28.91
2022-08-22T14:25:57.278Z,28.90
2022-08-22T14:28:32.456Z,29.01
2022-08-22T14:31:13.330Z,28.88
2022-08-22T14:33:50.973Z,28.78
2022-08-22T14:36:25.176Z,28.72
2022-08-22T14:38:53.319Z,28.63
2022-08-22T14:41:56.392Z,28.36
2022-08-22T14:44:27.630Z,28.29
2022-08-22T14:47:01.828Z,28.18
2022-08-22T14:49:48.072Z,27.71
2022-08-22T14:52:40.562Z,27.82
2022-08-22T14:55:23.386Z,27.78
2022-08-22T14:57:58.492Z,27.66
2022-08-22T15:00:29.535Z,27.47
2022-08-22T15:03:14.940Z,27.39
2022-08-22T15:05:49.011Z,27.29
2022-08-22T15:08:46.371Z,27.15
2022-08-22T15:11:25.044Z,27.10
2022-08-22T15:13:58.584Z,27.02
2022-08-22T15:16:34.286Z,26.91
2022-08-22T15:19:02.566Z,26.81
2022-08-22T15:21:33.838Z,26.63
2022-08-22T15:24:13.721Z,26.75
2022-08-22T15:26:51.381Z,26.78
2022-08-22T15:29:23.299Z,26.78
2022-08-22T15:31:52.801Z,26.79
2022-08-22T15:34:30.295Z,26.88
2022-08-22T15:37:00.510Z,26.84
2022-08-22T15:39:57.376Z,26.90
2022-08-22T15:42:27.097Z,26.90
2022-08-22T15:44:55.490Z,26.99
2022-08-22T15:47:30.427Z,27.05
2022-08-22T15:50:41.984Z,27.05
2022-08-22T15:53:14.855Z,27.08
2022-08-22T15:56:10.712Z,27.08
2022-08-22T15:58:48.615Z,27.05
2022-08-22T16:01:22.450Z,26.78
2022-08-22T16:03:59.169Z,26.89
2022-08-22T16:06:49.282Z,26.93
2022-08-22T16:09:42.727Z,26.93
2022-08-22T16:12:52.147Z,26.84
2022-08-22T16:15:47.026Z,26.86
2022-08-22T16:18:33.262Z,26.78
2022-08-22T16:21:08.087Z,26.72
2022-08-22T16:23:50.926Z,26.69
2022-08-22T16:26:44.482Z,26.64
2022-08-22T16:29:14.987Z,26.66
2022-08-22T16:31:44.498Z,26.63
2022-08-22T16:34:17.583Z,26.63
2022-08-22T16:37:08.465Z,26.38
2022-08-22T16:39:43.263Z,26.51
2022-08-22T16:42:13.352Z,26.45
2022-08-22T16:44:42.250Z,26.38
2022-08-22T16:47:12.249Z,26.39
2022-08-22T16:50:00.508Z,26.34
2022-08-22T16:52:27.555Z,26.31
2022-08-22T16:55:06.945Z,26.28
2022-08-22T16:58:09.620Z,26.22
2022-08-22T17:01:00.130Z,26.15
2022-08-22T17:03:58.312Z,26.12
2022-08-22T17:06:34.211Z,26.05
2022-08-22T17:09:26.226Z,26.01
2022-08-22T17:12:15.063Z,25.94
2022-08-22T17:14:53.739Z,25.79
2022-08-22T17:17:55.949Z,25.74
2022-08-22T17:20:22.956Z,25.63
2022-08-22T17:23:01.623Z,25.53
2022-08-22T17:25:33.663Z,25.47
2022-08-22T17:28:22.495Z,25.36
2022-08-22T17:30:59.690Z,25.26
2022-08-22T17:33:58.826Z,25.15
2022-08-22T17:36:40.863Z,25.10
2022-08-22T17:39:49.979Z,24.99
2022-08-22T17:42:38.120Z,25.09
2022-08-22T17:45:16.414Z,25.11
2022-08-22T17:47:52.555Z,25.12
2022-08-22T17:50:34.191Z,25.11
2022-08-22T17:53:08.937Z,25.11
2022-08-22T17:56:02.147Z,25.05
2022-08-22T17:58:43.455Z,24.97
2022-08-22T18:01:37.486Z,24.79
2022-08-22T18:04:10.923Z,24.98
2022-08-22T18:06:47.978Z,24.86
2022-08-22T18:09:37.377Z,24.72
2022-08-22T18:12:15.681Z,24.75
2022-08-22T18:14:54.850Z,24.64
2022-08-22T18:17:51.681Z,24.62
2022-08-22T18:20:30.427Z,24.63
2022-08-22T18:23:21.347Z,24.58
2022-08-22T18:26:24.032Z,24.19
2022-08-22T18:28:57.275Z,24.46
2022-08-22T18:31:38.334Z,24.43
2022-08-22T18:34:20.510Z,24.32
2022-08-22T18:36:58.067Z,24.18
2022-08-22T18:39:55.130Z,24.16
2022-08-22T18:42:33.115Z,24.10
2022-08-22T18:45:00.356Z,24.07
2022-08-22T18:47:34.395Z,24.04
2022-08-22T18:50:33.474Z,24.01
2022-08-22T18:53:00.957Z,23.79
2022-08-22T18:55:50.129Z,23.90
2022-08-22T18:58:38.764Z,23.85
2022-08-22T19:01:18.067Z,23.96
2022-08-22T19:04:16.177Z,23.91
2022-08-22T19:07:00.585Z,23.82
2022-08-22T19:09:36.972Z,23.76
2022-08-22T19:12:14.371Z,23.64
2022-08-22T19:14:47.079Z,23.63
2022-08-22T19:17:24.323Z,23.47
2022-08-22T19:20:42.325Z,23.68
2022-08-22T19:23:35.970Z,23.62
2022-08-22T19:26:22.918Z,23.42
2022-08-22T19:28:52.670Z,23.10
2022-08-22T19:31:41.097Z,23.30
2022-08-22T19:34:17.170Z,23.35
2022-08-22T19:36:46.199Z,23.06
2022-08-22T19:39:41.510Z,23.35
2022-08-22T19:42:27.532Z,23.08
2022-08-22T19:44:54.527Z,23.20
2022-08-22T19:47:21.587Z,23.21
2022-08-22T19:49:54.581Z,23.18
2022-08-22T19:52:46.538Z,23.12
2022-08-22T19:55:19.697Z,23.02
2022-08-22T19:57:58.462Z,22.96
2022-08-22T20:00:51.531Z,22.89
2022-08-22T20:03:53.142Z,22.86
2022-08-22T20:06:40.698Z,23.00
2022-08-22T20:09:38.816Z,22.94
2022-08-22T20:12:22.794Z,22.84
2022-08-22T20:14:50.993Z,22.86
2022-08-22T20:17:24.102Z,22.86
2022-08-22T20:20:30.513Z,22.79
2022-08-22T20:23:08.721Z,22.70
2022-08-22T20:25:44.396Z,22.60
2022-08-22T20:28:33.964Z,22.53
2022-08-22T20:31:05.709Z,22.44
2022-08-22T20:33:37.378Z,22.50
2022-08-22T20:36:16.616Z,22.46
2022-08-22T20:39:00.115Z,22.41
2022-08-22T20:41:39.627Z,22.31
2022-08-22T20:44:22.757Z,22.25
2022-08-22T20:46:57.651Z,22.18
2022-08-22T20:49:41.775Z,22.13
2022-08-22T20:52:20.251Z,22.16
2022-08-22T20:55:07.029Z,22.13
2022-08-22T20:57:43.799Z,22.05
2022-08-22T21:00:15.657Z,21.99
2022-08-22T21:02:51.123Z,21.99
2022-08-22T21:05:23.858Z,21.98
2022-08-22T21:08:05.224Z,21.86
2022-08-22T21:10:54.088Z,21.90
2022-08-22T21:13:28.631Z,21.82
2022-08-22T21:16:02.422Z,21.76
2022-08-22T21:18:34.905Z,21.77
2022-08-22T21:21:28.352Z,21.77
2022-08-22T21:24:02.215Z,21.63
2022-08-22T21:26:33.931Z,21.73
2022-08-22T21:29:13.185Z,21.70
2022-08-22T21:32:04.540Z,21.74
2022-08-22T21:34:37.023Z,21.70
2022-08-22T21:37:13.847Z,21.28
2022-08-22T21:39:48.318Z,21.61
2022-08-22T21:42:26.355Z,21.60
2022-08-22T21:44:59.597Z,21.54
2022-08-22T21:47:31.257Z,21.47
2022-08-22T21:50:25.271Z,21.54
2022-08-22T21:52:55.186Z,21.67
2022-08-22T21:55:23.316Z,21.56
2022-08-22T21:58:12.547Z,21.52
2022-08-22T22:00:49.340Z,21.50
2022-08-22T22:03:20.207Z,21.38
2022-08-22T22:05:49.386Z,21.15
2022-08-22T22:08:18.032Z,21.33
2022-08-22T22:10:47.276Z,21.23
2022-08-22T22:13:15.820Z,21.32
2022-08-22T22:15:45.184Z,21.36
2022-08-22T22:18:13.933Z,21.26
2022-08-22T22:20:42.285Z,21.26
2022-08-22T22:23:09.742Z,21.37
2022-08-22T22:25:42.242Z,21.31
2022-08-22T22:28:14.791Z,21.21
2022-08-22T22:30:43.499Z,21.20
2022-08-22T22:33:11.318Z,21.10
2022-08-22T22:35:40.098Z,21.09
2022-08-22T22:38:07.792Z,20.81
2022-08-22T22:40:35.374Z,21.05
2022-08-22T22:43:03.339Z,21.15
2022-08-22T22:45:30.605Z,20.96
2022-08-22T22:47:57.880Z,20.93
2022-08-22T22:50:25.520Z,20.92
2022-08-22T22:52:54.212Z,20.82
2022-08-22T22:55:24.665Z,20.99
2022-08-22T22:57:58.767Z,20.74
2022-08-22T23:00:32.169Z,20.92
2022-08-22T23:03:04.118Z,20.82
2022-08-22T23:05:31.975Z,20.82
2022-08-22T23:07:59.529Z,20.87
2022-08-22T23:10:28.390Z,20.82
2022-08-22T23:12:56.052Z,20.92
2022-08-22T23:15:23.306Z,20.57
2022-08-22T23:17:50.443Z,20.80
2022-08-22T23:20:18.187Z,20.95
2022-08-22T23:22:45.883Z,21.04
2022-08-22T23:25:13.278Z,20.98
2022-08-22T23:27:40.409Z,21.20
2022-08-22T23:30:09.098Z,21.16
2022-08-22T23:32:36.927Z,21.20
2022-08-22T23:35:05.094Z,21.17
2022-08-22T23:37:32.163Z,21.15
2022-08-22T23:39:59.304Z,21.24
2022-08-22T23:42:26.586Z,21.27
2022-08-22T23:44:53.616Z,21.30
2022-08-22T23:47:20.673Z,21.38
2022-08-22T23:49:47.709Z,21.45
2022-08-22T23:52:14.837Z,21.31
2022-08-22T23:54:42.281Z,21.23
2022-08-22T23:57:11.518Z,21.28
2022-08-22T23:59:43.510Z,21.64
